AirNav   Phillips 66 Aviation Fuel
 
 1626 users online  

7S4 Wisdom Airport
Wisdom, Montana, USA

GOING TO WISDOM?


FAA INFORMATION EFFECTIVE 21 JUNE 2018

Location

FAA Identifier: 7S4
Lat/Long: 45-35-29.7230N / 113-27-33.2120W
45-35.495383N / 113-27.553533W
45.5915897 / -113.4592256
(estimated)
Elevation: 6133 ft. / 1869.3 m (surveyed)
Variation: 17E (1985)
From city: 2 miles S of WISDOM, MT
Time zone: UTC -6 (UTC -7 during Standard Time)
Zip code: 59761

Airport Operations

Airport use: Open to the public
Activation date: 08/1951
Control tower: no
ARTCC: SALT LAKE CITY CENTER
FSS: GREAT FALLS FLIGHT SERVICE STATION
NOTAMs facility: GTF (NOTAM-D service available)
Attendance: UNATNDD
Wind indicator: yes
Segmented circle: no

Airport Communications

CTAF: 122.9

Nearby radio navigation aids

VOR radial/distance  VOR name  Freq  Var
CPNr212/39.8COPPERTOWN VOR/DME111.6016E

Airport Services

Parking: tiedowns
Airframe service: NONE
Powerplant service: NONE
Bottled oxygen: NONE
Bulk oxygen: NONE

Runway Information

Runway 1/19

Dimensions: 3445 x 60 ft. / 1050 x 18 m
Surface: turf, in poor condition
MULTIPLE GOPHER AND BADGER HOLES
Runway edge markings: FIRST 600 FT MARKED WITH WHITE CONES.
RUNWAY 1  RUNWAY 19
Gradient: 1.0%1.0%
Traffic pattern: leftleft
Displaced threshold: no520 ft.
DSPLCD THR MARKED WITH 4 RED CONES.
Obstructions: 10 ft. road, 40 ft. from runway, 4:1 slope to clear17 ft. road, 86 ft. from runway, 5:1 slope to clear
RY 19 APCH SLOPE 31:1 TO DSPLCD THLD.

Airport Ownership and Management from official FAA records

Ownership: Publicly-owned
Owner: BEAVERHEAD COUNTY
2 SO PACIFIC ST
DILLON, MT 59725-2799
Phone 406-683-5242
Manager: DENNIS DEVIVO
1265 LOVERS LANE ROAD
DILLON, MT 59725
Phone (406) 660-1791

Airport Operational Statistics

Aircraft operations: 230/year *
78% transient general aviation
22% local general aviation
* for 12-month period ending 19 July 2016

Additional Remarks

ARPT CLSD WINTER MONTHS.
RY 19 +17' ROAD CROSSES RY CL EXTENDED AND IS 66' LEFT AT RY 19 END.
RY 01/19 W EDGE FULL RY LENGTH - HAS 8 TO 14 INCH BERM.
RY HAS 4 FT HIGH FENCE IN TRANS SFC 20 FT FM WEST SIDE EDGE OF RY.

Instrument Procedures

There are no published instrument procedures at 7S4.

Some nearby airports with instrument procedures:

KSMN - Lemhi County Airport (33 nm SW)
3U3 - Bowman Field Airport (42 nm NE)
KDLN - Dillon Airport (43 nm SE)
KBTM - Bert Mooney Airport (46 nm NE)
6S5 - Ravalli County Airport (48 nm NW)
 
Loc | Ops | Rwys | IFR | FBO | Links
Com | Nav | Svcs | Stats | Notes

AirNav Hotels Sweepstakes
 
Area around 7S4 (Wisdom Airport)
 
Road maps at: MapQuest Bing Google
 
Aerial photo
No photo
 
Sectional chart

 
Airport distance calculator
Flying to Wisdom Airport? Find the distance to fly.

From to 7S4

Sunrise and sunset
Times for 25-Jun-2018
 Local
(UTC-6)
 Zulu
(UTC)
Morning civil twilight05:0911:09
Sunrise05:4711:47
Sunset21:2603:26
Evening civil twilight22:0404:04

Current date and time
Zulu (UTC)  25-Jun-2018 19:29:58
Local (UTC-6)  25-Jun-2018 13:29:58
 
METAR
KSMN 
33nm SW 
251856Z AUTO VRB04KT 10SM CLR 27/09 A2991 RMK AO2 SLP100 T02670089
KDLN 
43nm SE 
251853Z AUTO 22008KT 10SM CLR 24/11 A2999 RMK AO2 SLP107 T02440106
KBTM 
46nm NE 
251853Z AUTO 23008KT 10SM CLR 26/05 A3000 RMK AO2 SLP102 T02560050
7S1 
49nm E 
SuperAWOS
251855Z AUTO 00000KT 10SM 24/10 A2998
TAF
KSMN 
33nm SW 
251723Z 2518/2618 25008KT P6SM SKC FM252100 29013G23KT P6SM FEW090 FM260300 35011KT P6SM VCSH BKN090 FM260700 36006KT P6SM SCT070
NOTAMs
Click for the latest NOTAMs
NOTAMs are issued by the DoD/FAA and will open in a separate window not controlled by AirNav.

 

 
 

Would you like to see your business listed on this page?

 If your business provides an interesting product or service to pilots, flight crews, aircraft, or users of the Wisdom Airport, you should consider listing it here.  To start the listing process, click on the button below
 
Add a business
 

Other Pages about Wisdom Airport

Update a link
 
Copyright © AirNav, LLC. All rights reserved. Privacy Policy  Contact